createdAt,value
2019-03-22T00:00:06.163Z,11.63
2019-03-22T00:04:18.468Z,28.43
2019-03-22T00:08:38.289Z,21.20
2019-03-22T00:12:50.182Z,24.70
2019-03-22T00:17:00.808Z,21.13
2019-03-22T00:21:11.177Z,22.63
2019-03-22T00:25:21.477Z,22.10
2019-03-22T00:29:32.134Z,22.07
2019-03-22T00:33:43.667Z,20.90
2019-03-22T00:37:54.046Z,19.60
2019-03-22T00:42:05.141Z,19.70
2019-03-22T00:46:15.598Z,17.17
2019-03-22T00:50:26.035Z,15.77
2019-03-22T00:54:36.892Z,18.07
2019-03-22T00:58:46.821Z,15.57
2019-03-22T01:02:57.901Z,14.27
2019-03-22T01:07:08.253Z,16.90
2019-03-22T01:11:18.732Z,15.13
2019-03-22T01:15:28.930Z,14.37
2019-03-22T01:19:39.204Z,11.83
2019-03-22T01:23:49.673Z,9.97
2019-03-22T01:28:00.588Z,8.13
2019-03-22T01:32:17.496Z,6.80
2019-03-22T01:36:29.227Z,6.80
2019-03-22T01:40:39.491Z,6.00
2019-03-22T01:44:51.277Z,5.57
2019-03-22T01:49:01.871Z,5.83
2019-03-22T01:53:12.448Z,4.10
2019-03-22T01:57:23.598Z,5.10
2019-03-22T02:01:34.413Z,7.23
2019-03-22T02:05:45.054Z,3.63
2019-03-22T02:09:57.019Z,3.53
2019-03-22T02:14:08.545Z,4.47
2019-03-22T02:18:19.645Z,7.73
2019-03-22T02:22:30.411Z,3.03
2019-03-22T02:26:41.399Z,3.27
2019-03-22T02:30:53.058Z,5.50
2019-03-22T02:35:05.220Z,2.20
2019-03-22T02:39:16.697Z,2.30
2019-03-22T02:43:27.852Z,2.97
2019-03-22T02:47:38.789Z,2.40
2019-03-22T02:51:49.230Z,2.83
2019-03-22T02:55:59.810Z,2.77
2019-03-22T03:00:12.854Z,2.90
2019-03-22T03:04:24.039Z,4.00
2019-03-22T03:08:34.406Z,3.07
2019-03-22T03:12:54.628Z,3.20
2019-03-22T03:17:06.101Z,2.67
2019-03-22T03:21:16.541Z,2.73
2019-03-22T03:25:28.225Z,2.73
2019-03-22T03:29:40.985Z,3.07
2019-03-22T03:33:51.614Z,2.63
2019-03-22T03:38:05.031Z,1.67
2019-03-22T03:42:15.267Z,1.90
2019-03-22T03:46:26.080Z,1.53
2019-03-22T03:50:36.483Z,2.00
2019-03-22T03:54:47.018Z,2.20
2019-03-22T03:58:57.511Z,3.97
2019-03-22T04:03:08.403Z,3.33
2019-03-22T04:07:18.702Z,2.37
2019-03-22T04:11:30.508Z,1.97
2019-03-22T04:15:40.703Z,3.73
2019-03-22T04:19:51.700Z,2.27
2019-03-22T04:24:03.227Z,1.80
2019-03-22T04:28:14.263Z,1.53
2019-03-22T04:32:25.208Z,1.83
2019-03-22T04:36:37.034Z,2.30
2019-03-22T04:40:47.377Z,2.80
2019-03-22T04:44:58.024Z,1.60
2019-03-22T04:49:08.826Z,2.43
2019-03-22T04:53:22.969Z,2.53
2019-03-22T04:57:34.000Z,1.37
2019-03-22T05:01:46.557Z,1.73
2019-03-22T05:05:58.123Z,1.40
2019-03-22T05:10:09.697Z,2.30
2019-03-22T05:14:21.945Z,2.17
2019-03-22T05:18:35.044Z,1.63
2019-03-22T05:22:46.313Z,2.03
2019-03-22T05:26:58.600Z,1.47
2019-03-22T05:31:52.972Z,2.10
2019-03-22T05:36:03.750Z,2.80
2019-03-22T05:40:14.589Z,2.50
2019-03-22T05:44:25.975Z,2.07
2019-03-22T05:48:36.332Z,2.63
2019-03-22T05:52:48.554Z,3.00
2019-03-22T05:56:59.177Z,5.13
2019-03-22T06:01:09.834Z,4.20
2019-03-22T06:05:20.116Z,2.60
2019-03-22T06:09:32.379Z,1.77
2019-03-22T06:13:44.401Z,1.93
2019-03-22T06:17:55.417Z,2.07
2019-03-22T06:22:05.709Z,2.97
2019-03-22T06:26:16.395Z,1.77
2019-03-22T06:30:27.303Z,1.73
2019-03-22T06:34:37.795Z,2.23
2019-03-22T06:38:48.015Z,2.03
2019-03-22T06:42:58.402Z,2.60
2019-03-22T06:47:10.970Z,1.87
2019-03-22T06:51:21.456Z,1.97
2019-03-22T06:55:32.524Z,1.77
2019-03-22T06:59:43.192Z,2.23
2019-03-22T07:03:53.867Z,2.10
2019-03-22T07:08:04.516Z,1.50
2019-03-22T07:12:15.463Z,2.63
2019-03-22T07:16:26.116Z,4.27
2019-03-22T07:20:36.593Z,2.60
2019-03-22T07:24:47.013Z,1.50
2019-03-22T07:28:57.294Z,2.73
2019-03-22T07:33:07.955Z,2.57
2019-03-22T07:37:18.328Z,1.70
2019-03-22T07:41:29.473Z,1.97
2019-03-22T07:45:40.926Z,4.40
2019-03-22T07:49:53.727Z,1.67
2019-03-22T07:54:04.476Z,1.33
2019-03-22T07:58:15.566Z,1.80
2019-03-22T08:02:26.791Z,2.13
2019-03-22T08:06:38.105Z,1.80
2019-03-22T08:10:48.411Z,2.90
2019-03-22T08:14:59.312Z,1.80
2019-03-22T08:19:09.425Z,2.10
2019-03-22T08:23:32.763Z,4.40
2019-03-22T08:27:43.675Z,2.37
2019-03-22T08:31:54.192Z,2.00
2019-03-22T08:36:05.034Z,2.23
2019-03-22T08:40:15.314Z,2.13
2019-03-22T08:44:25.804Z,1.70
2019-03-22T08:48:36.159Z,1.87
2019-03-22T08:52:47.811Z,1.37
2019-03-22T08:56:58.002Z,2.03
2019-03-22T09:01:10.438Z,1.90
2019-03-22T09:05:21.264Z,1.50
2019-03-22T09:09:41.046Z,1.93
2019-03-22T09:13:43.829Z,1.63
2019-03-22T09:17:55.765Z,1.07
2019-03-22T09:22:06.224Z,2.47
2019-03-22T09:26:19.757Z,1.70
2019-03-22T09:30:29.253Z,3.90
2019-03-22T09:34:39.363Z,2.80
2019-03-22T09:38:50.090Z,1.40
2019-03-22T09:43:03.211Z,1.90
2019-03-22T09:47:16.357Z,1.33
2019-03-22T09:51:25.571Z,3.73
2019-03-22T09:55:36.513Z,1.50
2019-03-22T09:59:47.683Z,1.40
2019-03-22T10:03:58.851Z,3.07
2019-03-22T10:08:09.873Z,3.00
2019-03-22T10:12:20.224Z,1.87
2019-03-22T10:16:30.882Z,3.10
2019-03-22T10:20:43.849Z,2.03
2019-03-22T10:24:58.165Z,4.90
2019-03-22T10:29:09.352Z,5.13
2019-03-22T10:33:22.851Z,3.67
2019-03-22T10:37:32.063Z,5.17
2019-03-22T10:41:43.046Z,2.50
2019-03-22T10:45:54.009Z,95.90
2019-03-22T10:50:05.050Z,18.33
2019-03-22T10:54:16.321Z,25.23
2019-03-22T10:58:27.166Z,25.23
2019-03-22T11:02:37.674Z,24.40
2019-03-22T11:06:47.804Z,24.70
2019-03-22T11:10:58.623Z,19.17
2019-03-22T11:15:09.918Z,24.50
2019-03-22T11:19:22.092Z,23.53
2019-03-22T11:23:34.328Z,24.73
2019-03-22T11:27:45.434Z,22.67
2019-03-22T11:31:55.727Z,22.30
2019-03-22T11:36:05.951Z,16.37
2019-03-22T11:40:18.528Z,14.73
2019-03-22T11:44:28.696Z,13.17
2019-03-22T11:48:38.835Z,12.87
2019-03-22T11:52:49.239Z,11.63
2019-03-22T11:56:59.219Z,11.53
2019-03-22T12:01:19.103Z,13.90
2019-03-22T12:05:22.651Z,19.47
2019-03-22T12:09:33.691Z,10.47
2019-03-22T12:13:43.949Z,10.13
2019-03-22T12:17:54.820Z,12.77
2019-03-22T12:22:05.072Z,9.33
2019-03-22T12:26:15.453Z,12.23
2019-03-22T12:30:25.579Z,12.47
2019-03-22T12:34:35.616Z,8.63
2019-03-22T12:38:45.901Z,9.13
2019-03-22T12:42:56.710Z,8.50
2019-03-22T12:47:07.256Z,8.20
2019-03-22T12:51:22.402Z,8.10
2019-03-22T12:55:32.389Z,8.87
2019-03-22T12:59:42.870Z,8.83
2019-03-22T13:03:52.992Z,9.17
2019-03-22T13:08:03.450Z,11.60
2019-03-22T13:12:16.620Z,9.00
2019-03-22T13:16:27.347Z,12.23
2019-03-22T13:20:37.330Z,7.50
2019-03-22T13:24:48.667Z,7.43
2019-03-22T13:28:58.960Z,8.43
2019-03-22T13:33:09.698Z,7.93
2019-03-22T13:37:20.885Z,9.03
2019-03-22T13:41:31.383Z,7.37
2019-03-22T13:45:41.689Z,8.50
2019-03-22T13:49:52.065Z,7.33
2019-03-22T13:54:02.361Z,6.53
2019-03-22T13:58:12.786Z,8.27
2019-03-22T14:02:23.142Z,7.37
2019-03-22T14:06:33.493Z,7.73
2019-03-22T14:10:43.922Z,8.93
2019-03-22T14:14:54.016Z,9.00
2019-03-22T14:19:03.942Z,10.10
2019-03-22T14:23:14.520Z,8.53
2019-03-22T14:27:24.626Z,6.87
2019-03-22T14:31:35.045Z,6.97
2019-03-22T14:35:45.052Z,8.93
2019-03-22T14:39:55.402Z,7.30
2019-03-22T14:44:08.628Z,12.17
2019-03-22T14:48:18.868Z,14.63
2019-03-22T14:52:28.772Z,9.07
2019-03-22T14:56:39.492Z,8.40
2019-03-22T15:00:49.489Z,11.80
2019-03-22T15:05:03.701Z,9.70
2019-03-22T15:09:13.804Z,10.43
2019-03-22T15:13:29.543Z,12.60
2019-03-22T15:17:54.962Z,11.27
2019-03-22T15:22:16.531Z,12.73
2019-03-22T15:26:38.176Z,15.73
2019-03-22T15:31:19.315Z,14.97
2019-03-22T15:35:44.874Z,18.70
2019-03-22T15:40:02.373Z,19.60
2019-03-22T15:44:13.998Z,26.00
2019-03-22T15:48:24.415Z,32.20
2019-03-22T15:52:39.998Z,29.10
2019-03-22T15:56:50.433Z,27.87
2019-03-22T16:01:11.356Z,29.70
2019-03-22T16:05:22.951Z,24.10
2019-03-22T16:09:33.491Z,26.23
2019-03-22T16:13:44.115Z,25.77
2019-03-22T16:17:54.573Z,24.97
2019-03-22T16:22:05.353Z,24.23
2019-03-22T16:26:17.993Z,24.57
2019-03-22T16:30:29.115Z,23.33
2019-03-22T16:34:39.856Z,22.50
2019-03-22T16:38:51.189Z,20.67
2019-03-22T16:43:03.008Z,22.60
2019-03-22T16:47:14.130Z,22.67
2019-03-22T16:51:24.716Z,21.13
2019-03-22T16:55:43.849Z,22.23
2019-03-22T16:59:54.682Z,24.23
2019-03-22T17:04:05.310Z,21.30
2019-03-22T17:08:16.928Z,21.33
2019-03-22T17:12:28.344Z,20.30
2019-03-22T17:16:39.501Z,22.07
2019-03-22T17:20:50.155Z,23.97
2019-03-22T17:25:00.875Z,22.20
2019-03-22T17:29:12.684Z,26.30
2019-03-22T17:33:29.086Z,23.63
2019-03-22T17:37:39.537Z,25.17
2019-03-22T17:41:50.174Z,23.87
2019-03-22T17:46:05.914Z,19.70
2019-03-22T17:50:34.903Z,28.27
2019-03-22T17:54:45.187Z,26.10
2019-03-22T17:58:55.507Z,23.77
2019-03-22T18:03:06.392Z,23.80
2019-03-22T18:07:16.930Z,20.53
2019-03-22T18:11:27.752Z,17.67
2019-03-22T18:15:38.731Z,19.57
2019-03-22T18:19:50.638Z,21.10
2019-03-22T18:24:01.151Z,16.47
2019-03-22T18:28:12.189Z,17.53
2019-03-22T18:32:23.041Z,18.27
2019-03-22T18:36:34.679Z,16.60
2019-03-22T18:40:45.739Z,21.40
2019-03-22T18:44:58.390Z,15.40
2019-03-22T18:49:09.280Z,24.40
2019-03-22T18:53:19.564Z,17.90
2019-03-22T18:57:30.466Z,24.80
2019-03-22T19:01:42.443Z,18.17
2019-03-22T19:05:53.442Z,22.17
2019-03-22T19:10:03.655Z,17.40
2019-03-22T19:14:14.766Z,16.40
2019-03-22T19:18:25.992Z,15.20
2019-03-22T19:22:36.675Z,12.50
2019-03-22T19:26:47.552Z,12.07
2019-03-22T19:30:58.329Z,11.60
2019-03-22T19:35:10.605Z,12.20
2019-03-22T19:39:21.081Z,12.53
2019-03-22T19:43:31.123Z,14.13
2019-03-22T19:47:41.257Z,9.70
2019-03-22T19:51:52.312Z,12.37
2019-03-22T19:56:03.983Z,9.47
2019-03-22T20:00:15.022Z,12.77
2019-03-22T20:04:26.192Z,13.53
2019-03-22T20:08:37.175Z,10.83
2019-03-22T20:12:48.230Z,11.37
2019-03-22T20:17:00.059Z,14.67
2019-03-22T20:21:10.800Z,13.70
2019-03-22T20:25:22.241Z,16.10
2019-03-22T20:29:32.989Z,10.77
2019-03-22T20:33:43.827Z,13.83
2019-03-22T20:37:54.477Z,18.80
2019-03-22T20:42:05.729Z,16.63
2019-03-22T20:46:16.678Z,13.07
2019-03-22T20:50:35.340Z,14.30
2019-03-22T20:54:38.842Z,14.83
2019-03-22T20:58:49.769Z,18.80
2019-03-22T21:02:59.995Z,17.33
2019-03-22T21:07:10.563Z,13.40
2019-03-22T21:11:21.204Z,20.90
2019-03-22T21:15:32.869Z,14.23
2019-03-22T21:19:43.791Z,14.50
2019-03-22T21:23:54.397Z,15.80
2019-03-22T21:28:04.849Z,15.67
2019-03-22T21:32:16.817Z,13.50
2019-03-22T21:36:27.293Z,12.60
2019-03-22T21:40:38.414Z,11.40
2019-03-22T21:44:48.651Z,28.03
2019-03-22T21:48:59.283Z,30.83
2019-03-22T21:53:10.044Z,16.43
2019-03-22T21:57:20.432Z,16.80
2019-03-22T22:01:31.754Z,11.20
2019-03-22T22:05:47.901Z,15.93
2019-03-22T22:09:54.806Z,15.87
2019-03-22T22:14:06.067Z,11.93
2019-03-22T22:18:16.524Z,10.83
2019-03-22T22:22:27.747Z,12.00
2019-03-22T22:26:38.900Z,13.37
2019-03-22T22:30:50.300Z,15.97
2019-03-22T22:35:00.902Z,12.93
2019-03-22T22:39:12.150Z,16.63
2019-03-22T22:43:22.999Z,15.27
2019-03-22T22:47:33.302Z,20.03
2019-03-22T22:51:44.207Z,16.13
2019-03-22T22:55:54.917Z,13.23
2019-03-22T23:00:04.995Z,16.07
2019-03-22T23:04:16.979Z,13.73
2019-03-22T23:08:27.964Z,13.77
2019-03-22T23:12:39.012Z,20.90
2019-03-22T23:16:50.017Z,17.17
2019-03-22T23:21:01.610Z,13.37
2019-03-22T23:25:12.747Z,16.90
2019-03-22T23:29:24.393Z,17.10
2019-03-22T23:33:35.177Z,12.90
2019-03-22T23:37:45.769Z,14.77
2019-03-22T23:41:56.805Z,17.27
2019-03-22T23:46:10.148Z,15.27
2019-03-22T23:50:23.146Z,13.70
2019-03-22T23:54:34.914Z,15.00
2019-03-22T23:58:47.316Z,14.97
